createdAt,value
2023-04-26T00:05:55.480Z,65.98
2023-04-26T00:08:51.814Z,65.06
2023-04-26T00:12:46.380Z,65.70
2023-04-26T00:22:29.166Z,66.22
2023-04-26T00:23:58.317Z,65.70
2023-04-26T00:39:34.763Z,68.10
2023-04-26T00:42:31.192Z,67.58
2023-04-26T00:45:27.126Z,67.17
2023-04-26T00:47:25.283Z,68.33
2023-04-26T00:52:17.647Z,67.61
2023-04-26T00:54:15.425Z,68.02
2023-04-26T00:59:36.866Z,68.33
2023-04-26T01:02:04.159Z,68.33
2023-04-26T01:05:29.392Z,68.77
2023-04-26T01:10:22.156Z,69.18
2023-04-26T01:13:18.254Z,68.46
2023-04-26T01:15:17.815Z,68.67
2023-04-26T01:18:14.143Z,69.29
2023-04-26T01:22:37.276Z,69.18
2023-04-26T01:25:33.304Z,68.57
2023-04-26T01:40:07.194Z,68.26
2023-04-26T01:42:34.514Z,68.60
2023-04-26T01:47:27.711Z,69.32
2023-04-26T01:52:49.360Z,69.22
2023-04-26T02:03:00.967Z,69.42
2023-04-26T02:04:59.040Z,69.94
2023-04-26T02:07:26.342Z,69.63
2023-04-26T02:11:20.523Z,69.12
2023-04-26T02:13:47.655Z,68.80
2023-04-26T02:19:09.410Z,69.87
2023-04-26T02:22:34.802Z,69.97
2023-04-26T02:25:31.479Z,69.32
2023-04-26T02:26:59.900Z,68.80
2023-04-26T02:29:42.146Z,69.84
2023-04-26T02:32:24.592Z,69.66
2023-04-26T02:35:20.643Z,70.18
2023-04-26T02:41:40.343Z,70.18
2023-04-26T02:43:09.404Z,69.32
2023-04-26T02:47:33.027Z,70.59
2023-04-26T02:50:58.161Z,70.38
2023-04-26T02:52:27.112Z,70.59
2023-04-26T02:56:21.241Z,69.22
2023-04-26T02:57:50.194Z,70.07
2023-04-26T02:59:19.211Z,69.87
2023-04-26T03:02:44.621Z,70.18
2023-04-26T03:04:42.543Z,70.28
2023-04-26T03:09:34.893Z,70.38
2023-04-26T03:22:14.029Z,69.25
2023-04-26T03:30:29.768Z,70.18
2023-04-26T03:33:27.250Z,69.53
2023-04-26T03:35:24.396Z,69.42
2023-04-26T03:38:20.375Z,69.73
2023-04-26T03:39:49.448Z,69.63
2023-04-26T03:41:47.453Z,69.73
2023-04-26T03:43:45.446Z,69.22
2023-04-26T03:45:14.389Z,69.63
2023-04-26T03:54:57.804Z,69.87
2023-04-26T03:59:49.925Z,69.87
2023-04-26T04:02:46.590Z,69.46
2023-04-26T04:04:15.590Z,70.83
2023-04-26T04:08:10.305Z,70.72
2023-04-26T04:10:37.338Z,70.21
2023-04-26T04:13:33.792Z,70.83
2023-04-26T04:17:28.408Z,71.44
2023-04-26T04:18:57.321Z,70.93
2023-04-26T04:20:55.437Z,70.72
2023-04-26T04:23:51.604Z,70.31
2023-04-26T04:27:17.046Z,71.14
2023-04-26T04:29:15.451Z,69.70
2023-04-26T04:32:40.875Z,70.31
2023-04-26T04:36:35.268Z,70.52
2023-04-26T04:39:31.474Z,70.83
2023-04-26T04:43:25.795Z,71.48
2023-04-26T04:44:54.775Z,71.03
2023-04-26T04:48:20.192Z,70.52
2023-04-26T04:50:18.374Z,70.42
2023-04-26T04:52:45.282Z,70.83
2023-04-26T04:55:13.121Z,70.62
2023-04-26T04:57:11.178Z,70.93
2023-04-26T05:01:05.627Z,70.38
2023-04-26T05:07:55.369Z,69.63
2023-04-26T05:09:24.394Z,70.14
2023-04-26T05:12:21.278Z,70.56
2023-04-26T05:13:52.734Z,70.11
2023-04-26T05:17:45.502Z,69.60
2023-04-26T05:19:14.860Z,69.70
2023-04-26T05:21:12.931Z,70.01
2023-04-26T05:22:42.193Z,69.80
2023-04-26T05:24:40.277Z,70.01
2023-04-26T05:26:09.307Z,69.70
2023-04-26T05:38:18.297Z,68.40
2023-04-26T05:40:45.466Z,68.51
2023-04-26T05:42:16.376Z,68.40
2023-04-26T05:51:30.401Z,68.51
2023-04-26T05:57:21.195Z,68.61
2023-04-26T06:01:16.101Z,68.78
2023-04-26T06:10:01.438Z,69.60
2023-04-26T06:12:57.951Z,69.70
2023-04-26T06:15:25.068Z,70.12
2023-04-26T06:16:54.467Z,70.12
2023-04-26T06:22:17.233Z,69.91
2023-04-26T06:24:15.245Z,69.47
2023-04-26T06:27:40.528Z,69.57
2023-04-26T06:31:06.435Z,68.96
2023-04-26T06:35:30.492Z,68.72
2023-04-26T06:37:58.056Z,69.06
2023-04-26T06:40:45.017Z,69.16
2023-04-26T06:43:41.725Z,69.47
2023-04-26T06:52:55.630Z,69.54
2023-04-26T06:56:49.782Z,69.95
2023-04-26T06:58:47.856Z,70.26
2023-04-26T07:08:02.597Z,70.22
2023-04-26T07:09:31.570Z,70.22
2023-04-26T07:15:22.440Z,70.32
2023-04-26T07:19:16.525Z,69.98
2023-04-26T07:26:05.702Z,70.09
2023-04-26T07:28:32.982Z,69.57
2023-04-26T07:31:00.189Z,69.78
2023-04-26T07:32:58.431Z,69.27
2023-04-26T07:38:20.545Z,69.03
2023-04-26T07:39:49.261Z,69.13
2023-04-26T07:43:14.576Z,68.49
2023-04-26T07:51:59.594Z,67.13
2023-04-26T07:58:19.092Z,66.35
2023-04-26T07:59:48.009Z,65.12
2023-04-26T08:02:15.103Z,64.92
2023-04-26T08:05:41.620Z,65.33
2023-04-26T08:08:07.321Z,64.30
2023-04-26T08:12:01.676Z,63.79
2023-04-26T08:16:36.826Z,63.39
2023-04-26T08:21:29.090Z,63.82
2023-04-26T08:23:56.411Z,63.48
2023-04-26T08:39:00.347Z,64.20
2023-04-26T08:42:54.761Z,62.57
2023-04-26T08:49:14.454Z,60.42
2023-04-26T08:54:36.340Z,62.08
2023-04-26T08:56:34.381Z,62.18
2023-04-26T08:58:03.420Z,62.05
2023-04-26T09:10:12.624Z,61.95
2023-04-26T09:12:10.701Z,60.65
2023-04-26T09:14:38.026Z,59.80
2023-04-26T09:20:00.293Z,59.16
2023-04-26T09:23:25.566Z,57.86
2023-04-26T09:26:21.927Z,57.97
2023-04-26T09:36:33.967Z,58.78
2023-04-26T09:38:07.810Z,58.89
2023-04-26T09:44:52.915Z,58.75
2023-04-26T09:47:20.131Z,58.04
2023-04-26T09:50:16.612Z,58.25
2023-04-26T09:51:45.560Z,58.04
2023-04-26T09:53:14.580Z,58.55
2023-04-26T09:55:41.661Z,58.65
2023-04-26T09:58:08.840Z,58.04
2023-04-26T10:00:06.874Z,58.45
2023-04-26T10:01:35.996Z,57.45
2023-04-26T10:04:03.263Z,56.97
2023-04-26T10:07:29.054Z,57.58
2023-04-26T10:13:49.415Z,57.68
2023-04-26T10:15:18.306Z,57.68
2023-04-26T10:19:13.074Z,56.53
2023-04-26T10:20:41.560Z,56.53
2023-04-26T10:22:11.487Z,57.04
2023-04-26T10:24:37.667Z,56.46
2023-04-26T10:27:05.112Z,57.17
2023-04-26T10:36:19.095Z,57.02
2023-04-26T10:38:46.448Z,57.02
2023-04-26T10:41:42.554Z,56.38
2023-04-26T10:47:09.212Z,56.45
2023-04-26T10:50:05.877Z,56.32
2023-04-26T10:54:29.512Z,54.31
2023-04-26T10:57:25.587Z,54.21
2023-04-26T10:58:25.684Z,54.49
2023-04-26T10:59:39.783Z,54.28
2023-04-26T11:02:22.779Z,54.18
2023-04-26T11:07:45.094Z,54.79
2023-04-26T11:16:59.512Z,55.20
2023-04-26T11:18:57.410Z,53.77
2023-04-26T11:22:51.810Z,54.28
2023-04-26T11:27:44.670Z,54.97
2023-04-26T11:29:13.699Z,55.69
2023-04-26T11:30:42.667Z,54.05
2023-04-26T11:32:40.717Z,51.91
2023-04-26T11:35:07.754Z,51.51
2023-04-26T11:36:37.461Z,52.22
2023-04-26T11:39:32.949Z,52.22
2023-04-26T11:44:26.028Z,52.91
2023-04-26T11:45:55.221Z,52.98
2023-04-26T11:47:24.241Z,51.97
2023-04-26T11:50:20.268Z,51.76
2023-04-26T11:56:10.486Z,52.17
2023-04-26T11:58:37.541Z,51.33
2023-04-26T12:03:01.491Z,52.58
2023-04-26T12:05:28.449Z,52.98
2023-04-26T12:12:17.428Z,52.09
2023-04-26T12:16:22.320Z,52.91
2023-04-26T12:18:30.621Z,52.09
2023-04-26T12:23:51.926Z,52.27
2023-04-26T12:26:19.268Z,53.09
2023-04-26T12:30:42.781Z,52.68
2023-04-26T12:35:35.243Z,52.37
2023-04-26T12:38:02.517Z,50.54
2023-04-26T12:40:58.918Z,51.66
2023-04-26T12:43:55.055Z,50.64
2023-04-26T12:50:15.592Z,52.58
2023-04-26T12:53:39.821Z,51.46
2023-04-26T12:56:07.412Z,50.64
2023-04-26T12:58:34.572Z,51.99
2023-04-26T13:06:51.473Z,51.89
2023-04-26T13:08:49.529Z,52.50
2023-04-26T13:13:12.920Z,52.60
2023-04-26T13:14:42.268Z,52.29
2023-04-26T13:17:38.730Z,52.73
2023-04-26T13:19:07.600Z,52.32
2023-04-26T13:24:57.848Z,53.24
2023-04-26T13:28:52.447Z,52.29
2023-04-26T13:32:47.862Z,52.40
2023-04-26T13:34:46.874Z,52.09
2023-04-26T13:36:14.464Z,53.22
2023-04-26T13:38:41.256Z,53.52
2023-04-26T13:44:32.013Z,52.70
2023-04-26T13:45:35.701Z,52.91
2023-04-26T13:46:32.449Z,52.70
2023-04-26T13:48:30.034Z,52.60
2023-04-26T13:58:15.034Z,52.91
2023-04-26T14:01:10.416Z,53.11
2023-04-26T14:03:37.617Z,52.50
2023-04-26T14:05:35.629Z,52.91
2023-04-26T14:10:28.306Z,52.68
2023-04-26T14:13:54.450Z,53.39
2023-04-26T14:15:22.502Z,54.00
2023-04-26T14:21:42.381Z,53.29
2023-04-26T14:26:35.442Z,53.01
2023-04-26T14:30:00.691Z,53.83
2023-04-26T14:44:35.245Z,54.03
2023-04-26T14:46:04.481Z,54.03
2023-04-26T14:48:31.668Z,53.59
2023-04-26T14:50:00.638Z,53.29
2023-04-26T14:53:54.783Z,54.11
2023-04-26T14:55:52.842Z,53.78
2023-04-26T14:58:22.151Z,50.82
2023-04-26T15:01:45.259Z,50.09
2023-04-26T15:03:14.305Z,49.78
2023-04-26T15:04:43.652Z,49.48
2023-04-26T15:07:18.029Z,50.11
2023-04-26T15:08:40.412Z,49.58
2023-04-26T15:10:38.490Z,49.37
2023-04-26T15:12:36.894Z,49.09
2023-04-26T15:15:04.009Z,49.80
2023-04-26T15:23:20.005Z,49.73
2023-04-26T15:27:14.076Z,52.07
2023-04-26T15:30:10.229Z,51.33
2023-04-26T15:41:21.346Z,51.56
2023-04-26T15:43:48.523Z,51.35
2023-04-26T15:45:17.548Z,51.33
2023-04-26T15:53:33.456Z,50.92
2023-04-26T15:58:55.276Z,50.01
2023-04-26T16:00:24.302Z,49.19
2023-04-26T16:03:20.671Z,49.70
2023-04-26T16:07:43.951Z,51.56
2023-04-26T16:12:36.798Z,50.95
2023-04-26T16:17:00.669Z,51.86
2023-04-26T16:23:20.506Z,52.25
2023-04-26T16:27:15.699Z,52.25
2023-04-26T16:29:33.714Z,53.06
2023-04-26T16:34:16.922Z,53.09
2023-04-26T16:40:07.696Z,53.29
2023-04-26T16:48:24.043Z,53.70
2023-04-26T16:52:18.302Z,53.39
2023-04-26T16:55:14.474Z,53.59
2023-04-26T16:56:43.538Z,53.50
2023-04-26T17:04:02.118Z,54.61
2023-04-26T17:08:25.123Z,54.03
2023-04-26T17:15:42.819Z,54.85
2023-04-26T17:18:39.515Z,55.05
2023-04-26T17:21:36.062Z,54.54
2023-04-26T17:23:04.951Z,54.64
2023-04-26T17:24:33.977Z,54.54
2023-04-26T17:31:22.972Z,54.74
2023-04-26T17:33:21.232Z,54.85
2023-04-26T17:36:46.894Z,55.26
2023-04-26T17:38:16.527Z,54.94
2023-04-26T17:39:44.838Z,55.05
2023-04-26T17:44:38.365Z,55.05
2023-04-26T17:48:04.009Z,54.94
2023-04-26T17:49:32.829Z,54.94
2023-04-26T17:54:25.101Z,54.97
2023-04-26T17:56:23.268Z,54.97
2023-04-26T17:57:52.216Z,54.94
2023-04-26T18:01:47.064Z,55.35
2023-04-26T18:04:43.610Z,55.76
2023-04-26T18:08:08.976Z,55.05
2023-04-26T18:13:30.422Z,55.35
2023-04-26T18:15:28.477Z,55.05
2023-04-26T18:17:26.626Z,55.07
2023-04-26T18:26:41.588Z,55.69
2023-04-26T18:32:07.619Z,55.38
2023-04-26T18:35:32.981Z,55.18
2023-04-26T18:37:31.037Z,55.28
2023-04-26T18:41:54.704Z,55.38
2023-04-26T18:45:50.160Z,55.89
2023-04-26T18:47:18.120Z,55.79
2023-04-26T18:49:45.316Z,55.89
2023-04-26T18:51:43.444Z,55.89
2023-04-26T18:53:41.584Z,56.10
2023-04-26T18:58:34.322Z,56.30
2023-04-26T19:00:03.287Z,56.60
2023-04-26T19:02:01.494Z,56.40
2023-04-26T19:03:01.452Z,56.43
2023-04-26T19:04:01.462Z,56.81
2023-04-26T19:06:57.858Z,56.94
2023-04-26T19:08:26.859Z,57.14
2023-04-26T19:10:54.080Z,57.55
2023-04-26T19:16:15.772Z,58.78
2023-04-26T19:21:08.135Z,58.37
2023-04-26T19:22:37.137Z,58.78
2023-04-26T19:27:00.831Z,58.57
2023-04-26T19:28:29.912Z,58.98
2023-04-26T19:30:27.940Z,58.54
2023-04-26T19:31:57.029Z,58.85
2023-04-26T19:34:53.215Z,59.16
2023-04-26T19:37:50.739Z,59.28
2023-04-26T19:40:17.997Z,59.59
2023-04-26T19:44:12.894Z,60.30
2023-04-26T19:46:01.298Z,60.71
2023-04-26T19:51:52.384Z,60.61
2023-04-26T19:57:44.875Z,61.15
2023-04-26T20:05:03.365Z,61.66
2023-04-26T20:07:00.949Z,61.56
2023-04-26T20:08:58.658Z,61.79
2023-04-26T20:10:57.070Z,61.58
2023-04-26T20:12:26.121Z,61.69
2023-04-26T20:13:55.097Z,61.58
2023-04-26T20:15:24.332Z,62.10
2023-04-26T20:20:46.543Z,62.71
2023-04-26T20:25:10.391Z,61.18
2023-04-26T20:28:37.511Z,61.49
2023-04-26T20:32:01.464Z,61.38
2023-04-26T20:35:56.308Z,62.33
2023-04-26T20:37:25.328Z,62.84
2023-04-26T20:39:52.478Z,63.18
2023-04-26T20:41:52.534Z,63.18
2023-04-26T20:45:15.952Z,62.77
2023-04-26T20:48:12.111Z,63.07
2023-04-26T20:52:35.237Z,63.62
2023-04-26T20:54:04.250Z,64.03
2023-04-26T20:55:33.262Z,64.13
2023-04-26T21:02:22.217Z,64.47
2023-04-26T21:07:20.054Z,65.28
2023-04-26T21:09:18.541Z,64.80
2023-04-26T21:10:47.073Z,65.59
2023-04-26T21:12:45.166Z,64.47
2023-04-26T21:14:14.146Z,64.36
2023-04-26T21:19:36.951Z,64.47
2023-04-26T21:21:33.887Z,63.95
2023-04-26T21:23:31.913Z,64.36
2023-04-26T21:27:58.308Z,64.18
2023-04-26T21:29:55.241Z,63.98
2023-04-26T21:32:21.976Z,64.80
2023-04-26T21:35:47.701Z,64.70
2023-04-26T21:37:45.690Z,63.57
2023-04-26T21:41:10.955Z,63.98
2023-04-26T21:45:05.535Z,64.22
2023-04-26T21:48:42.079Z,63.47
2023-04-26T21:50:40.847Z,63.26
2023-04-26T21:52:09.826Z,63.50
2023-04-26T21:53:38.880Z,64.22
2023-04-26T21:56:05.949Z,63.70
2023-04-26T21:58:03.985Z,63.81
2023-04-26T22:00:02.116Z,64.22
2023-04-26T22:02:00.279Z,65.07
2023-04-26T22:05:26.471Z,64.56
2023-04-26T22:13:13.030Z,65.71
2023-04-26T22:14:42.281Z,65.81
2023-04-26T22:16:11.074Z,65.51
2023-04-26T22:19:12.413Z,65.81
2023-04-26T22:21:10.291Z,65.92
2023-04-26T22:25:04.620Z,65.44
2023-04-26T22:27:32.339Z,65.95
2023-04-26T22:29:00.634Z,65.20
2023-04-26T22:31:57.072Z,66.05
2023-04-26T22:34:24.182Z,65.44
2023-04-26T22:37:21.539Z,65.54
2023-04-26T22:39:47.690Z,66.25
2023-04-26T22:41:45.766Z,65.44
2023-04-26T22:44:14.827Z,66.25
2023-04-26T22:48:39.482Z,66.70
2023-04-26T22:51:35.774Z,66.39
2023-04-26T22:53:04.863Z,66.80
2023-04-26T22:54:33.871Z,66.49
2023-04-26T22:57:01.062Z,66.16
2023-04-26T22:58:59.093Z,66.80
2023-04-26T23:01:55.540Z,67.00
2023-04-26T23:05:20.816Z,66.08
2023-04-26T23:06:50.238Z,66.49
2023-04-26T23:08:48.710Z,66.90
2023-04-26T23:13:11.459Z,66.70
2023-04-26T23:14:40.619Z,66.70
2023-04-26T23:16:09.419Z,65.67
2023-04-26T23:20:33.843Z,66.83
2023-04-26T23:23:59.455Z,67.14
2023-04-26T23:25:28.674Z,67.35
2023-04-26T23:27:26.577Z,67.07
2023-04-26T23:31:21.764Z,68.10
2023-04-26T23:33:19.750Z,68.23
2023-04-26T23:39:11.122Z,67.27
2023-04-26T23:46:58.364Z,68.85
2023-04-26T23:51:21.749Z,68.02
2023-04-26T23:53:54.050Z,68.64
2023-04-26T23:58:17.810Z,68.98
